createdAt,value
2022-08-17T00:02:20.157Z,25.98
2022-08-17T00:04:53.963Z,23.02
2022-08-17T00:07:20.629Z,25.42
2022-08-17T00:09:47.278Z,24.00
2022-08-17T00:12:43.736Z,25.00
2022-08-17T00:15:01.219Z,23.60
2022-08-17T00:17:27.922Z,24.92
2022-08-17T00:19:54.589Z,26.00
2022-08-17T00:22:31.705Z,27.13
2022-08-17T00:25:03.699Z,27.17
2022-08-17T00:27:30.332Z,23.40
2022-08-17T00:29:57.044Z,24.08
2022-08-17T00:33:12.527Z,23.55
2022-08-17T00:35:12.426Z,24.27
2022-08-17T00:37:39.187Z,23.88
2022-08-17T00:40:07.757Z,21.38
2022-08-17T00:42:34.813Z,22.15
2022-08-17T00:45:01.845Z,23.85
2022-08-17T00:47:28.504Z,23.70
2022-08-17T00:49:55.316Z,20.60
2022-08-17T00:52:28.158Z,23.65
2022-08-17T00:54:55.944Z,20.55
2022-08-17T00:57:32.800Z,23.23
2022-08-17T01:00:26.355Z,19.02
2022-08-17T01:03:00.578Z,21.75
2022-08-17T01:05:30.105Z,20.05
2022-08-17T01:07:59.530Z,19.48
2022-08-17T01:10:58.556Z,18.88
2022-08-17T01:13:25.844Z,20.65
2022-08-17T01:15:57.704Z,23.92
2022-08-17T01:18:26.153Z,20.73
2022-08-17T01:20:57.570Z,18.58
2022-08-17T01:23:26.037Z,18.98
2022-08-17T01:25:55.793Z,23.85
2022-08-17T01:28:53.191Z,19.30
2022-08-17T01:31:12.540Z,18.80
2022-08-17T01:33:39.366Z,18.60
2022-08-17T01:36:07.562Z,21.20
2022-08-17T01:38:38.259Z,20.08
2022-08-17T01:41:12.255Z,18.63
2022-08-17T01:43:46.111Z,20.17
2022-08-17T01:46:23.323Z,18.98
2022-08-17T01:48:51.107Z,18.77
2022-08-17T01:51:17.957Z,21.63
2022-08-17T01:53:49.558Z,19.55
2022-08-17T01:56:19.277Z,23.35
2022-08-17T01:58:46.866Z,22.98
2022-08-17T02:01:19.345Z,23.05
2022-08-17T02:03:53.425Z,21.73
2022-08-17T02:06:27.484Z,24.88
2022-08-17T02:09:02.435Z,24.77
2022-08-17T02:11:32.615Z,25.50
2022-08-17T02:14:03.290Z,28.23
2022-08-17T02:16:36.909Z,28.52
2022-08-17T02:19:08.017Z,28.30
2022-08-17T02:21:36.694Z,27.55
2022-08-17T02:24:05.405Z,24.85
2022-08-17T02:26:32.140Z,28.13
2022-08-17T02:28:58.834Z,27.98
2022-08-17T02:31:25.490Z,26.42
2022-08-17T02:34:03.408Z,26.13
2022-08-17T02:36:33.425Z,28.25
2022-08-17T02:39:01.901Z,27.48
2022-08-17T02:41:28.664Z,33.85
2022-08-17T02:43:55.303Z,28.15
2022-08-17T02:46:22.569Z,28.77
2022-08-17T02:48:49.453Z,30.65
2022-08-17T02:51:17.091Z,30.80
2022-08-17T02:53:43.836Z,29.27
2022-08-17T02:56:10.563Z,29.80
2022-08-17T02:58:37.257Z,32.97
2022-08-17T03:01:05.905Z,33.13
2022-08-17T03:03:32.979Z,31.33
2022-08-17T03:05:59.692Z,29.42
2022-08-17T03:08:27.162Z,33.10
2022-08-17T03:10:54.006Z,27.15
2022-08-17T03:13:20.917Z,31.48
2022-08-17T03:15:48.515Z,30.08
2022-08-17T03:18:25.286Z,26.02
2022-08-17T03:20:59.038Z,25.20
2022-08-17T03:23:27.499Z,24.83
2022-08-17T03:25:56.190Z,21.92
2022-08-17T03:28:23.581Z,23.48
2022-08-17T03:30:51.174Z,22.30
2022-08-17T03:33:18.970Z,23.15
2022-08-17T03:35:46.104Z,21.98
2022-08-17T03:38:15.864Z,20.38
2022-08-17T03:40:58.108Z,20.30
2022-08-17T03:43:28.494Z,18.25
2022-08-17T03:46:28.508Z,22.58
2022-08-17T03:49:19.570Z,19.80
2022-08-17T03:52:05.107Z,22.92
2022-08-17T03:57:17.425Z,21.80
2022-08-17T03:59:45.089Z,19.23
2022-08-17T04:02:19.155Z,20.00
2022-08-17T04:04:46.513Z,18.45
2022-08-17T04:07:13.198Z,21.05
2022-08-17T04:09:39.984Z,21.48
2022-08-17T04:12:06.839Z,21.60
2022-08-17T04:14:36.680Z,24.55
2022-08-17T04:17:19.971Z,21.80
2022-08-17T04:19:46.849Z,22.80
2022-08-17T04:22:33.343Z,23.48
2022-08-17T04:25:04.793Z,22.48
2022-08-17T04:27:31.671Z,24.27
2022-08-17T04:29:58.590Z,24.95
2022-08-17T04:33:03.712Z,26.77
2022-08-17T04:35:12.020Z,27.77
2022-08-17T04:37:38.768Z,29.60
2022-08-17T04:40:25.968Z,32.83
2022-08-17T04:43:05.752Z,30.48
2022-08-17T04:45:32.809Z,31.92
2022-08-17T04:48:00.689Z,33.38
2022-08-17T04:50:27.638Z,35.20
2022-08-17T04:52:56.125Z,33.78
2022-08-17T04:55:23.246Z,36.72
2022-08-17T04:57:49.975Z,33.38
2022-08-17T05:00:16.748Z,32.03
2022-08-17T05:02:50.311Z,30.20
2022-08-17T05:05:21.569Z,30.02
2022-08-17T05:07:52.555Z,26.58
2022-08-17T05:10:20.045Z,28.25
2022-08-17T05:12:47.040Z,24.67
2022-08-17T05:15:16.150Z,23.67
2022-08-17T05:17:43.447Z,21.10
2022-08-17T05:20:10.876Z,20.80
2022-08-17T05:22:51.084Z,19.92
2022-08-17T05:25:29.897Z,15.75
2022-08-17T05:28:00.614Z,14.32
2022-08-17T05:30:28.863Z,13.30
2022-08-17T05:32:56.997Z,13.05
2022-08-17T05:35:25.133Z,14.52
2022-08-17T05:37:52.220Z,12.57
2022-08-17T05:40:21.347Z,13.43
2022-08-17T05:42:48.815Z,12.27
2022-08-17T05:45:39.910Z,11.27
2022-08-17T05:48:07.192Z,13.18
2022-08-17T05:50:53.962Z,10.63
2022-08-17T05:53:23.359Z,11.40
2022-08-17T05:55:55.863Z,10.80
2022-08-17T05:58:36.093Z,11.10
2022-08-17T06:01:16.955Z,11.57
2022-08-17T06:03:54.287Z,10.98
2022-08-17T06:06:35.171Z,9.85
2022-08-17T06:09:13.727Z,9.90
2022-08-17T06:11:58.927Z,9.93
2022-08-17T06:14:51.946Z,10.65
2022-08-17T06:17:22.072Z,10.93
2022-08-17T06:19:59.940Z,11.52
2022-08-17T06:22:33.271Z,11.63
2022-08-17T06:25:18.455Z,9.73
2022-08-17T06:27:54.189Z,14.98
2022-08-17T06:30:27.341Z,12.85
2022-08-17T06:32:59.447Z,11.98
2022-08-17T06:35:40.942Z,13.75
2022-08-17T06:38:49.816Z,13.82
2022-08-17T06:41:38.215Z,13.15
2022-08-17T06:44:06.434Z,13.07
2022-08-17T06:46:43.579Z,14.40
2022-08-17T06:49:30.465Z,13.13
2022-08-17T06:52:45.415Z,14.43
2022-08-17T06:55:18.776Z,14.70
2022-08-17T06:57:52.480Z,14.13
2022-08-17T07:00:26.405Z,14.85
2022-08-17T07:02:59.485Z,15.40
2022-08-17T07:05:33.736Z,14.13
2022-08-17T07:08:08.130Z,13.93
2022-08-17T07:10:46.795Z,14.45
2022-08-17T07:13:22.801Z,15.25
2022-08-17T07:15:57.050Z,16.85
2022-08-17T07:18:29.965Z,16.80
2022-08-17T07:23:40.015Z,15.55
2022-08-17T07:26:09.063Z,15.70
2022-08-17T07:28:36.657Z,15.40
2022-08-17T07:31:04.784Z,16.77
2022-08-17T07:33:34.323Z,20.13
2022-08-17T07:36:01.626Z,16.15
2022-08-17T07:38:33.077Z,15.30
2022-08-17T07:41:06.419Z,15.48
2022-08-17T07:43:42.230Z,15.50
2022-08-17T07:46:35.733Z,17.52
2022-08-17T07:49:08.306Z,15.80
2022-08-17T07:52:47.709Z,16.00
2022-08-17T07:54:50.104Z,14.73
2022-08-17T07:57:20.067Z,16.70
2022-08-17T08:00:01.964Z,15.45
2022-08-17T08:02:43.125Z,16.60
2022-08-17T08:05:50.266Z,18.05
2022-08-17T08:08:37.341Z,16.83
2022-08-17T08:11:15.218Z,18.83
2022-08-17T08:13:43.719Z,19.27
2022-08-17T08:16:29.021Z,16.80
2022-08-17T08:18:59.312Z,16.05
2022-08-17T08:21:41.905Z,16.67
2022-08-17T08:24:40.070Z,15.90
2022-08-17T08:27:09.513Z,19.42
2022-08-17T08:29:52.665Z,17.50
2022-08-17T08:32:22.236Z,16.80
2022-08-17T08:35:06.506Z,17.40
2022-08-17T08:37:42.899Z,14.27
2022-08-17T08:40:23.583Z,14.77
2022-08-17T08:43:04.898Z,14.20
2022-08-17T08:45:50.087Z,13.57
2022-08-17T08:48:53.365Z,14.68
2022-08-17T08:51:18.822Z,13.98
2022-08-17T08:53:58.937Z,14.35
2022-08-17T08:56:37.293Z,14.88
2022-08-17T08:59:22.828Z,12.43
2022-08-17T09:02:13.891Z,13.05
2022-08-17T09:05:13.860Z,13.07
2022-08-17T09:08:04.537Z,14.68
2022-08-17T09:10:45.892Z,12.32
2022-08-17T09:13:24.628Z,10.98
2022-08-17T09:15:59.002Z,11.18
2022-08-17T09:19:01.185Z,10.40
2022-08-17T09:21:28.555Z,11.20
2022-08-17T09:24:20.566Z,12.85
2022-08-17T09:27:02.325Z,12.15
2022-08-17T09:29:34.808Z,10.98
2022-08-17T09:32:09.457Z,18.85
2022-08-17T09:34:53.485Z,13.75
2022-08-17T09:37:30.615Z,11.30
2022-08-17T09:40:15.669Z,15.45
2022-08-17T09:42:49.631Z,10.50
2022-08-17T09:45:34.480Z,13.57
2022-08-17T09:48:08.135Z,26.77
2022-08-17T09:51:03.915Z,14.98
2022-08-17T09:53:32.991Z,16.20
2022-08-17T09:56:25.354Z,14.95
2022-08-17T09:59:38.442Z,15.68
2022-08-17T10:02:25.690Z,15.35
2022-08-17T10:05:17.951Z,13.98
2022-08-17T10:08:17.150Z,15.73
2022-08-17T10:10:58.925Z,16.45
2022-08-17T10:13:53.324Z,14.45
2022-08-17T10:16:45.919Z,16.25
2022-08-17T10:19:29.833Z,15.75
2022-08-17T10:22:34.825Z,16.63
2022-08-17T10:25:24.822Z,14.50
2022-08-17T10:28:05.196Z,14.70
2022-08-17T10:30:34.653Z,15.73
2022-08-17T10:33:06.661Z,13.07
2022-08-17T10:36:01.168Z,13.93
2022-08-17T10:38:49.559Z,12.77
2022-08-17T10:41:31.172Z,12.38
2022-08-17T10:44:40.391Z,12.70
2022-08-17T10:47:14.414Z,12.63
2022-08-17T10:49:47.579Z,12.98
2022-08-17T10:52:20.435Z,13.02
2022-08-17T10:54:51.316Z,14.20
2022-08-17T10:57:36.382Z,14.90
2022-08-17T11:00:15.699Z,14.85
2022-08-17T11:02:50.356Z,14.60
2022-08-17T11:05:43.519Z,17.13
2022-08-17T11:08:26.513Z,17.08
2022-08-17T11:11:05.373Z,16.10
2022-08-17T11:13:48.329Z,17.02
2022-08-17T11:16:45.560Z,17.77
2022-08-17T11:19:33.589Z,17.85
2022-08-17T11:22:33.333Z,21.45
2022-08-17T11:25:20.250Z,17.27
2022-08-17T11:27:53.483Z,19.33
2022-08-17T11:30:44.326Z,22.13
2022-08-17T11:33:29.109Z,21.60
2022-08-17T11:36:21.234Z,21.35
2022-08-17T11:39:04.464Z,21.88
2022-08-17T11:41:48.770Z,26.88
2022-08-17T11:44:39.843Z,22.80
2022-08-17T11:48:26.103Z,24.05
2022-08-17T11:51:17.018Z,28.02
2022-08-17T11:53:43.629Z,27.77
2022-08-17T11:56:40.938Z,27.33
2022-08-17T11:59:33.748Z,31.50
2022-08-17T12:02:02.713Z,25.98
2022-08-17T12:04:34.865Z,28.15
2022-08-17T12:07:16.740Z,27.75
2022-08-17T12:09:47.532Z,27.67
2022-08-17T12:12:19.217Z,28.05
2022-08-17T12:15:10.214Z,28.17
2022-08-17T12:17:42.994Z,28.00
2022-08-17T12:20:28.234Z,30.30
2022-08-17T12:23:14.987Z,29.40
2022-08-17T12:25:47.955Z,30.95
2022-08-17T12:28:35.888Z,30.38
2022-08-17T12:31:06.285Z,33.83
2022-08-17T12:33:35.765Z,31.75
2022-08-17T12:36:06.418Z,31.15
2022-08-17T12:38:35.981Z,32.38
2022-08-17T12:41:24.557Z,28.15
2022-08-17T12:44:02.446Z,29.55
2022-08-17T12:46:45.635Z,31.73
2022-08-17T12:49:22.539Z,32.00
2022-08-17T12:51:51.229Z,30.23
2022-08-17T12:54:26.312Z,32.88
2022-08-17T12:56:53.368Z,31.33
2022-08-17T12:59:29.969Z,31.77
2022-08-17T13:01:57.620Z,31.98
2022-08-17T13:04:24.617Z,32.10
2022-08-17T13:06:59.629Z,35.80
2022-08-17T13:09:35.225Z,35.97
2022-08-17T13:12:06.887Z,35.33
2022-08-17T13:14:35.061Z,36.85
2022-08-17T13:17:08.348Z,37.72
2022-08-17T13:19:48.823Z,37.33
2022-08-17T13:22:15.473Z,36.92
2022-08-17T13:24:52.916Z,40.35
2022-08-17T13:27:21.301Z,40.15
2022-08-17T13:29:53.389Z,40.20
2022-08-17T13:32:35.966Z,35.13
2022-08-17T13:35:32.429Z,35.20
2022-08-17T13:38:39.341Z,33.58
2022-08-17T13:41:07.442Z,35.85
2022-08-17T13:43:46.038Z,38.83
2022-08-17T13:46:21.942Z,39.53
2022-08-17T13:49:05.007Z,33.60
2022-08-17T13:51:35.722Z,36.92
2022-08-17T13:54:06.159Z,31.05
2022-08-17T13:56:49.477Z,31.30
2022-08-17T13:59:53.092Z,29.98
2022-08-17T14:02:16.234Z,28.00
2022-08-17T14:04:45.306Z,29.52
2022-08-17T14:07:12.912Z,29.33
2022-08-17T14:10:02.719Z,29.48
2022-08-17T14:12:32.195Z,27.50
2022-08-17T14:14:59.398Z,28.45
2022-08-17T14:17:28.828Z,26.20
2022-08-17T14:19:55.580Z,28.55
2022-08-17T14:22:27.453Z,27.35
2022-08-17T14:24:57.929Z,26.20
2022-08-17T14:27:27.937Z,28.10
2022-08-17T14:29:56.292Z,26.70
2022-08-17T14:32:28.173Z,27.88
2022-08-17T14:34:57.552Z,29.23
2022-08-17T14:37:27.833Z,27.67
2022-08-17T14:39:56.543Z,29.70
2022-08-17T14:42:25.209Z,30.25
2022-08-17T14:44:55.943Z,28.40
2022-08-17T14:47:22.872Z,27.83
2022-08-17T14:49:49.554Z,28.30
2022-08-17T14:52:21.462Z,28.20
2022-08-17T14:54:51.216Z,28.13
2022-08-17T14:57:33.566Z,28.45
2022-08-17T15:00:01.867Z,27.33
2022-08-17T15:02:30.704Z,26.70
2022-08-17T15:05:04.103Z,27.35
2022-08-17T15:07:31.549Z,28.30
2022-08-17T15:10:01.377Z,28.20
2022-08-17T15:12:32.861Z,27.00
2022-08-17T15:15:00.979Z,27.48
2022-08-17T15:17:44.644Z,26.08
2022-08-17T15:20:20.711Z,25.35
2022-08-17T15:22:55.293Z,25.75
2022-08-17T15:25:23.975Z,25.25
2022-08-17T15:27:51.071Z,24.13
2022-08-17T15:30:18.626Z,24.90
2022-08-17T15:32:48.215Z,25.80
2022-08-17T15:35:26.930Z,23.45
2022-08-17T15:38:10.676Z,23.52
2022-08-17T15:40:41.693Z,23.30
2022-08-17T15:43:11.556Z,21.90
2022-08-17T15:45:38.889Z,21.73
2022-08-17T15:48:05.831Z,22.50
2022-08-17T15:50:32.583Z,24.88
2022-08-17T15:53:01.026Z,24.35
2022-08-17T15:55:29.916Z,24.30
2022-08-17T15:57:56.656Z,24.13
2022-08-17T16:00:23.977Z,22.42
2022-08-17T16:03:46.253Z,22.73
2022-08-17T16:05:37.678Z,20.95
2022-08-17T16:08:07.477Z,21.95
2022-08-17T16:10:35.075Z,22.08
2022-08-17T16:13:03.983Z,22.73
2022-08-17T16:15:33.435Z,22.40
2022-08-17T16:18:00.155Z,19.10
2022-08-17T16:20:27.376Z,19.88
2022-08-17T16:22:55.006Z,19.98
2022-08-17T16:25:38.311Z,20.35
2022-08-17T16:28:17.390Z,17.90
2022-08-17T16:30:44.693Z,18.75
2022-08-17T16:33:12.556Z,19.50
2022-08-17T16:35:39.352Z,17.27
2022-08-17T16:38:07.202Z,22.02
2022-08-17T16:40:35.724Z,21.52
2022-08-17T16:43:03.627Z,22.48
2022-08-17T16:45:36.415Z,22.15
2022-08-17T16:48:03.580Z,23.85
2022-08-17T16:50:31.841Z,22.48
2022-08-17T16:53:10.668Z,23.98
2022-08-17T16:55:38.175Z,25.17
2022-08-17T16:58:06.270Z,25.33
2022-08-17T17:00:33.691Z,25.08
2022-08-17T17:03:19.632Z,27.25
2022-08-17T17:06:03.690Z,29.20
2022-08-17T17:08:44.548Z,29.50
2022-08-17T17:11:26.523Z,29.27
2022-08-17T17:14:01.477Z,30.77
2022-08-17T17:16:41.596Z,30.40
2022-08-17T17:19:34.507Z,28.02
2022-08-17T17:22:31.574Z,29.80
2022-08-17T17:25:10.446Z,28.65
2022-08-17T17:28:07.036Z,31.88
2022-08-17T17:30:36.441Z,29.38
2022-08-17T17:33:14.371Z,29.85
2022-08-17T17:35:54.336Z,30.98
2022-08-17T17:38:31.230Z,29.98
2022-08-17T17:41:05.413Z,31.17
2022-08-17T17:43:40.406Z,34.80
2022-08-17T17:46:28.063Z,33.53
2022-08-17T17:48:59.081Z,33.55
2022-08-17T17:52:06.806Z,31.45
2022-08-17T17:54:43.382Z,31.35
2022-08-17T17:57:31.781Z,31.10
2022-08-17T18:00:10.053Z,31.00
2022-08-17T18:02:55.277Z,34.97
2022-08-17T18:05:37.282Z,33.35
2022-08-17T18:08:32.363Z,33.92
2022-08-17T18:11:04.688Z,32.30
2022-08-17T18:13:58.722Z,33.42
2022-08-17T18:16:29.637Z,33.45
2022-08-17T18:18:59.756Z,31.45
2022-08-17T18:21:37.758Z,36.83
2022-08-17T18:24:07.403Z,35.70
2022-08-17T18:26:40.052Z,35.88
2022-08-17T18:29:21.327Z,37.97
2022-08-17T18:31:48.267Z,37.58
2022-08-17T18:34:45.798Z,40.63
2022-08-17T18:37:10.756Z,36.85
2022-08-17T18:39:38.271Z,35.95
2022-08-17T18:42:23.361Z,35.28
2022-08-17T18:44:54.800Z,34.10
2022-08-17T18:47:27.195Z,34.22
2022-08-17T18:49:58.195Z,33.97
2022-08-17T18:52:30.151Z,36.28
2022-08-17T18:55:10.867Z,32.88
2022-08-17T18:57:53.253Z,34.83
2022-08-17T19:00:30.383Z,35.25
2022-08-17T19:03:05.574Z,35.30
2022-08-17T19:05:41.712Z,36.95
2022-08-17T19:08:28.666Z,35.33
2022-08-17T19:11:16.417Z,37.17
2022-08-17T19:13:57.412Z,34.20
2022-08-17T19:16:55.069Z,36.10
2022-08-17T19:19:32.037Z,35.47
2022-08-17T19:22:31.503Z,33.85
2022-08-17T19:25:16.085Z,35.58
2022-08-17T19:28:21.476Z,37.63
2022-08-17T19:30:54.476Z,35.17
2022-08-17T19:33:21.255Z,37.83
2022-08-17T19:36:00.782Z,39.13
2022-08-17T19:38:53.028Z,40.00
2022-08-17T19:41:25.930Z,37.40
2022-08-17T19:47:01.010Z,36.50
2022-08-17T19:49:48.250Z,39.00
2022-08-17T19:52:49.927Z,34.90
2022-08-17T19:55:22.707Z,35.50
2022-08-17T19:57:49.894Z,36.92
2022-08-17T20:00:18.267Z,35.30
2022-08-17T20:02:52.656Z,44.47
2022-08-17T20:05:19.458Z,40.53
2022-08-17T20:10:55.018Z,41.42
2022-08-17T20:13:35.084Z,39.08
2022-08-17T20:16:02.876Z,38.05
2022-08-17T20:18:34.747Z,41.85
2022-08-17T20:21:20.470Z,38.13
2022-08-17T20:24:01.686Z,34.83
2022-08-17T20:26:57.216Z,39.35
2022-08-17T20:29:36.860Z,42.40
2022-08-17T20:32:23.048Z,39.88
2022-08-17T20:35:03.706Z,37.45
2022-08-17T20:37:33.076Z,35.47
2022-08-17T20:39:59.747Z,37.58
2022-08-17T20:42:27.737Z,33.00
2022-08-17T20:45:05.471Z,33.70
2022-08-17T20:47:50.442Z,34.63
2022-08-17T20:50:40.005Z,38.10
2022-08-17T20:53:13.323Z,35.17
2022-08-17T20:55:52.462Z,33.78
2022-08-17T20:58:36.933Z,33.83
2022-08-17T21:01:36.632Z,32.13
2022-08-17T21:04:08.011Z,36.17
2022-08-17T21:06:54.668Z,31.70
2022-08-17T21:09:30.833Z,30.08
2022-08-17T21:12:03.876Z,33.85
2022-08-17T21:14:54.103Z,30.38
2022-08-17T21:17:47.077Z,31.80
2022-08-17T21:20:57.377Z,30.65
2022-08-17T21:23:53.120Z,27.15
2022-08-17T21:26:30.810Z,33.00
2022-08-17T21:29:30.878Z,32.33
2022-08-17T21:31:59.714Z,30.38
2022-08-17T21:34:39.643Z,34.45
2022-08-17T21:37:25.919Z,31.42
2022-08-17T21:39:59.230Z,31.08
2022-08-17T21:42:35.074Z,29.35
2022-08-17T21:45:11.527Z,28.77
2022-08-17T21:47:43.593Z,29.30
2022-08-17T21:50:24.306Z,30.75
2022-08-17T21:52:53.991Z,25.70
2022-08-17T21:55:28.183Z,25.83
2022-08-17T21:58:13.684Z,26.70
2022-08-17T22:00:41.229Z,21.30
2022-08-17T22:03:23.665Z,20.77
2022-08-17T22:05:51.235Z,24.27
2022-08-17T22:08:24.585Z,23.83
2022-08-17T22:10:59.232Z,21.17
2022-08-17T22:13:29.637Z,22.85
2022-08-17T22:16:29.083Z,20.92
2022-08-17T22:18:58.732Z,22.02
2022-08-17T22:21:26.066Z,21.63
2022-08-17T22:24:17.924Z,21.50
2022-08-17T22:27:01.546Z,21.02
2022-08-17T22:29:58.160Z,19.17
2022-08-17T22:32:55.321Z,19.63
2022-08-17T22:35:37.561Z,22.05
2022-08-17T22:38:19.497Z,19.13
2022-08-17T22:40:52.212Z,19.67
2022-08-17T22:43:26.166Z,20.70
2022-08-17T22:45:57.166Z,21.95
2022-08-17T22:48:27.322Z,20.67
2022-08-17T22:51:17.383Z,21.40
2022-08-17T22:54:09.072Z,23.90
2022-08-17T22:56:55.007Z,21.02
2022-08-17T22:59:41.449Z,23.83
2022-08-17T23:02:27.201Z,22.25
2022-08-17T23:05:16.469Z,21.52
2022-08-17T23:07:45.022Z,22.77
2022-08-17T23:10:13.836Z,24.40
2022-08-17T23:12:40.519Z,22.67
2022-08-17T23:20:08.198Z,24.20
2022-08-17T23:22:37.881Z,24.65
2022-08-17T23:25:30.128Z,23.90
2022-08-17T23:28:01.363Z,25.85
2022-08-17T23:30:39.237Z,23.17
2022-08-17T23:33:15.076Z,23.83
2022-08-17T23:35:42.761Z,21.27
2022-08-17T23:38:14.149Z,21.67
2022-08-17T23:40:41.090Z,22.50
2022-08-17T23:43:24.605Z,23.85
2022-08-17T23:45:57.393Z,24.58
2022-08-17T23:48:36.345Z,25.73
2022-08-17T23:51:17.250Z,23.67
2022-08-17T23:53:52.691Z,21.60
2022-08-17T23:56:25.866Z,25.08
2022-08-17T23:58:54.792Z,23.88
